Terminal Aerodrome Forecast
Issued by NWS

Home | Current Version | Previous Version | Text Only | Print | Product List | Glossary On
Versions: 1 2 3 4 5 6 7 8 9 10 11 12 13 14 15 16 17 18 19 20 21 22 23 24 25 26 27
000
FTUS44 KSJT 290500
TAFBBD
TAF
KBBD 290539Z 2906/3006 32011KT P6SM SHRA VCTS BKN015CB
     FM290800 15008KT P6SM BKN200
     FM291000 15007KT P6SM OVC015
     FM291500 17013KT P6SM BKN050
     FM292100 14010KT P6SM SCT250=

USA.gov is the U.S. government's official web portal to all federal, state and local government web resources and services.